createdAt,value
2022-11-22T00:00:30.585Z,92052.34
2022-11-22T00:02:57.026Z,92025.06
2022-11-22T00:05:23.430Z,92042.13
2022-11-22T00:07:49.946Z,92017.84
2022-11-22T00:10:16.498Z,92034.19
2022-11-22T00:12:43.310Z,92067.41
2022-11-22T00:15:10.989Z,92051.47
2022-11-22T00:17:38.146Z,92038.81
2022-11-22T00:20:06.596Z,92036.50
2022-11-22T00:22:33.506Z,92052.13
2022-11-22T00:25:00.320Z,92018.78
2022-11-22T00:27:26.863Z,92011.19
2022-11-22T00:29:53.343Z,92010.56
2022-11-22T00:32:19.770Z,92005.41
2022-11-22T00:34:46.300Z,92016.22
2022-11-22T00:37:12.722Z,92020.50
2022-11-22T00:39:39.187Z,92005.31
2022-11-22T00:42:05.670Z,91980.00
2022-11-22T00:44:34.193Z,92000.56
2022-11-22T00:47:00.607Z,91992.19
2022-11-22T00:49:27.298Z,91968.84
2022-11-22T00:51:54.289Z,91985.28
2022-11-22T00:54:20.725Z,91995.38
2022-11-22T00:56:47.143Z,91945.16
2022-11-22T00:59:13.584Z,92000.16
2022-11-22T01:01:40.102Z,91970.03
2022-11-22T01:04:08.885Z,91999.03
2022-11-22T01:06:35.560Z,91996.78
2022-11-22T01:09:02.095Z,91986.06
2022-11-22T01:11:28.564Z,91971.41
2022-11-22T01:13:55.028Z,91966.22
2022-11-22T01:16:23.659Z,91961.91
2022-11-22T01:18:50.165Z,91952.38
2022-11-22T01:21:16.602Z,91963.63
2022-11-22T01:23:43.182Z,91939.28
2022-11-22T01:26:09.666Z,91950.47
2022-11-22T01:28:36.492Z,91970.72
2022-11-22T01:31:04.891Z,91961.56
2022-11-22T01:33:31.356Z,91945.06
2022-11-22T01:35:58.487Z,91956.44
2022-11-22T01:38:25.443Z,91982.94
2022-11-22T01:40:52.876Z,91955.16
2022-11-22T01:43:22.417Z,91981.66
2022-11-22T01:46:03.473Z,91959.19
2022-11-22T01:48:50.077Z,91982.25
2022-11-22T01:51:34.654Z,91983.81
2022-11-22T01:54:06.430Z,91964.53
2022-11-22T01:56:34.322Z,91963.38
2022-11-22T01:59:07.547Z,91982.72
2022-11-22T02:01:35.199Z,92007.44
2022-11-22T02:04:03.217Z,91981.69
2022-11-22T02:06:48.813Z,91982.59
2022-11-22T02:09:16.911Z,91969.50
2022-11-22T02:11:48.456Z,92010.28
2022-11-22T02:14:21.071Z,91983.72
2022-11-22T02:16:49.637Z,91976.56
2022-11-22T02:19:26.374Z,91960.72
2022-11-22T02:21:58.535Z,91989.53
2022-11-22T02:24:42.205Z,91963.44
2022-11-22T02:27:08.855Z,91985.75
2022-11-22T02:29:36.314Z,91966.03
2022-11-22T02:32:02.764Z,91979.44
2022-11-22T02:34:29.219Z,91973.44
2022-11-22T02:36:55.739Z,91978.69
2022-11-22T02:39:28.569Z,91984.69
2022-11-22T02:41:56.892Z,91982.28
2022-11-22T02:44:27.066Z,92014.09
2022-11-22T02:46:55.015Z,92001.41
2022-11-22T02:49:24.004Z,91990.94
2022-11-22T02:51:51.959Z,91997.09
2022-11-22T02:54:19.270Z,91996.75
2022-11-22T02:56:46.015Z,92000.75
2022-11-22T02:59:12.447Z,91994.59
2022-11-22T03:01:38.977Z,92002.47
2022-11-22T03:04:05.616Z,92024.66
2022-11-22T03:06:32.079Z,92008.38
2022-11-22T03:09:02.645Z,92038.31
2022-11-22T03:11:29.103Z,92023.38
2022-11-22T03:13:55.534Z,92002.19
2022-11-22T03:16:21.984Z,92020.63
2022-11-22T03:18:48.449Z,92012.59
2022-11-22T03:21:28.109Z,92023.53
2022-11-22T03:23:54.876Z,92023.13
2022-11-22T03:26:21.343Z,92026.59
2022-11-22T03:28:47.766Z,92012.16
2022-11-22T03:31:19.414Z,92043.88
2022-11-22T03:33:45.941Z,92044.44
2022-11-22T03:36:12.400Z,92020.28
2022-11-22T03:38:47.996Z,92045.44
2022-11-22T03:41:14.488Z,92048.00
2022-11-22T03:43:40.909Z,92020.50
2022-11-22T03:46:12.809Z,92025.75
2022-11-22T03:48:39.211Z,92043.97
2022-11-22T03:51:06.694Z,92030.56
2022-11-22T03:53:33.699Z,92046.78
2022-11-22T03:56:01.045Z,92040.97
2022-11-22T03:58:27.499Z,92054.19
2022-11-22T04:00:53.953Z,92036.47
2022-11-22T04:03:20.393Z,92019.84
2022-11-22T04:05:46.808Z,92034.97
2022-11-22T04:08:13.995Z,92047.25
2022-11-22T04:10:40.473Z,92040.09
2022-11-22T04:13:07.330Z,92048.06
2022-11-22T04:15:34.082Z,92050.31
2022-11-22T04:18:00.493Z,92054.19
2022-11-22T04:20:48.103Z,92054.50
2022-11-22T04:23:18.434Z,92049.69
2022-11-22T04:25:47.461Z,92046.13
2022-11-22T04:28:20.353Z,92061.13
2022-11-22T04:31:05.544Z,92071.59
2022-11-22T04:33:32.009Z,92053.31
2022-11-22T04:35:58.612Z,92063.66
2022-11-22T04:38:25.077Z,92058.16
2022-11-22T04:40:52.092Z,92077.50
2022-11-22T04:43:42.896Z,92069.69
2022-11-22T04:46:09.404Z,92076.88
2022-11-22T04:48:36.207Z,92080.09
2022-11-22T04:51:25.920Z,92064.94
2022-11-22T04:53:52.424Z,92064.09
2022-11-22T04:56:19.198Z,92074.03
2022-11-22T04:58:46.728Z,92075.19
2022-11-22T05:01:13.209Z,92072.00
2022-11-22T05:03:39.684Z,92075.72
2022-11-22T05:06:06.134Z,92066.25
2022-11-22T05:08:34.711Z,92067.03
2022-11-22T05:11:01.191Z,92067.03
2022-11-22T05:13:34.878Z,92087.13
2022-11-22T05:16:03.944Z,92062.72
2022-11-22T05:18:30.988Z,92096.56
2022-11-22T05:20:57.912Z,92096.56
2022-11-22T05:23:43.005Z,92097.91
2022-11-22T05:26:11.118Z,92093.25
2022-11-22T05:28:39.333Z,92084.66
2022-11-22T05:31:10.777Z,92087.81
2022-11-22T05:33:57.034Z,92092.84
2022-11-22T05:36:25.699Z,92082.50
2022-11-22T05:38:54.945Z,92094.84
2022-11-22T05:41:21.421Z,92096.31
2022-11-22T05:43:47.932Z,92094.03
2022-11-22T05:46:24.388Z,92093.16
2022-11-22T05:48:54.759Z,92110.31
2022-11-22T05:51:32.142Z,92098.03
2022-11-22T05:54:06.424Z,92110.56
2022-11-22T05:56:40.926Z,92085.75
2022-11-22T05:59:07.357Z,92088.13
2022-11-22T06:01:33.806Z,92100.66
2022-11-22T06:04:03.088Z,92114.41
2022-11-22T06:06:29.707Z,92099.53
2022-11-22T06:08:59.862Z,92101.50
2022-11-22T06:11:27.857Z,92099.84
2022-11-22T06:13:59.887Z,92118.44
2022-11-22T06:16:27.563Z,92113.69
2022-11-22T06:18:56.703Z,92125.44
2022-11-22T06:21:26.156Z,92142.78
2022-11-22T06:23:55.943Z,92141.19
2022-11-22T06:26:23.987Z,92130.50
2022-11-22T06:28:50.701Z,92147.72
2022-11-22T06:31:26.101Z,92154.19
2022-11-22T06:33:59.628Z,92165.38
2022-11-22T06:36:28.588Z,92174.53
2022-11-22T06:38:56.905Z,92176.88
2022-11-22T06:41:31.195Z,92166.59
2022-11-22T06:43:57.666Z,92167.38
2022-11-22T06:46:26.134Z,92175.06
2022-11-22T06:48:53.037Z,92178.16
2022-11-22T06:51:28.454Z,92178.03
2022-11-22T06:53:56.039Z,92201.66
2022-11-22T06:56:37.766Z,92206.41
2022-11-22T06:59:05.831Z,92209.44
2022-11-22T07:01:33.914Z,92190.41
2022-11-22T07:04:01.449Z,92214.84
2022-11-22T07:06:37.319Z,92200.19
2022-11-22T07:09:09.340Z,92186.84
2022-11-22T07:11:36.343Z,92212.47
2022-11-22T07:14:08.098Z,92223.72
2022-11-22T07:16:36.372Z,92222.03
2022-11-22T07:19:03.181Z,92219.31
2022-11-22T07:21:29.658Z,92218.88
2022-11-22T07:23:56.354Z,92220.09
2022-11-22T07:26:26.135Z,92227.03
2022-11-22T07:28:52.675Z,92221.63
2022-11-22T07:31:19.644Z,92215.09
2022-11-22T07:33:47.184Z,92240.72
2022-11-22T07:36:16.444Z,92226.06
2022-11-22T07:38:42.911Z,92235.56
2022-11-22T07:41:10.045Z,92245.03
2022-11-22T07:43:36.520Z,92222.41
2022-11-22T07:46:08.384Z,92235.88
2022-11-22T07:48:35.128Z,92228.75
2022-11-22T07:51:06.428Z,92217.28
2022-11-22T07:53:33.680Z,92227.94
2022-11-22T07:56:07.172Z,92209.88
2022-11-22T07:58:34.784Z,92210.88
2022-11-22T08:01:20.938Z,92235.13
2022-11-22T08:03:47.920Z,92234.22
2022-11-22T08:06:15.257Z,92241.47
2022-11-22T08:08:42.053Z,92242.03
2022-11-22T08:11:08.573Z,92222.38
2022-11-22T08:13:35.344Z,92234.00
2022-11-22T08:16:08.053Z,92247.53
2022-11-22T08:18:35.909Z,92255.88
2022-11-22T08:21:07.483Z,92220.50
2022-11-22T08:23:34.744Z,92253.50
2022-11-22T08:26:01.309Z,92247.13
2022-11-22T08:28:28.460Z,92250.69
2022-11-22T08:31:04.004Z,92259.47
2022-11-22T08:33:30.705Z,92278.22
2022-11-22T08:35:57.228Z,92272.25
2022-11-22T08:38:24.170Z,92257.94
2022-11-22T08:40:50.944Z,92269.50
2022-11-22T08:43:17.658Z,92277.44
2022-11-22T08:45:44.096Z,92262.31
2022-11-22T08:48:11.211Z,92254.75
2022-11-22T08:50:37.640Z,92278.19
2022-11-22T08:53:04.098Z,92286.78
2022-11-22T08:55:30.527Z,92298.91
2022-11-22T08:58:00.444Z,92305.25
2022-11-22T09:00:32.890Z,92273.47
2022-11-22T09:02:59.963Z,92292.84
2022-11-22T09:05:26.626Z,92306.13
2022-11-22T09:10:39.875Z,92314.34
2022-11-22T09:13:06.445Z,92320.31
2022-11-22T09:15:33.060Z,92294.94
2022-11-22T09:18:03.523Z,92303.69
2022-11-22T09:20:30.052Z,92268.75
2022-11-22T09:22:56.518Z,92309.16
2022-11-22T09:25:22.943Z,92302.44
2022-11-22T09:27:49.445Z,92323.28
2022-11-22T09:30:15.869Z,92337.44
2022-11-22T09:32:44.587Z,92300.97
2022-11-22T09:35:11.113Z,92331.03
2022-11-22T09:37:37.539Z,92323.09
2022-11-22T09:40:04.334Z,92325.63
2022-11-22T09:42:51.707Z,92343.50
2022-11-22T09:45:39.445Z,92348.25
2022-11-22T09:48:24.653Z,92363.38
2022-11-22T09:51:06.359Z,92348.50
2022-11-22T09:53:45.627Z,92347.78
2022-11-22T09:56:15.302Z,92327.75
2022-11-22T09:58:51.486Z,92358.88
2022-11-22T10:01:31.751Z,92367.34
2022-11-22T10:04:08.119Z,92343.78
2022-11-22T10:06:41.611Z,92350.19
2022-11-22T10:09:27.439Z,92367.66
2022-11-22T10:12:18.379Z,92372.41
2022-11-22T10:14:58.784Z,92366.06
2022-11-22T10:17:31.376Z,92366.41
2022-11-22T10:20:12.221Z,92370.44
2022-11-22T10:22:38.803Z,92348.41
2022-11-22T10:25:19.602Z,92364.22
2022-11-22T10:28:27.915Z,92357.88
2022-11-22T10:31:23.146Z,92358.69
2022-11-22T10:34:01.637Z,92353.91
2022-11-22T10:36:34.993Z,92355.56
2022-11-22T10:39:19.456Z,92355.28
2022-11-22T10:41:45.897Z,92338.66
2022-11-22T10:45:13.293Z,92351.50
2022-11-22T10:47:55.021Z,92357.38
2022-11-22T10:50:52.270Z,92359.34
2022-11-22T10:53:38.504Z,92355.19
2022-11-22T10:56:14.528Z,92360.28
2022-11-22T10:59:13.873Z,92333.78
2022-11-22T11:01:52.445Z,92347.88
2022-11-22T11:04:20.974Z,92321.53
2022-11-22T11:07:11.558Z,92315.59
2022-11-22T11:12:45.213Z,92326.53
2022-11-22T11:15:21.525Z,92322.63
2022-11-22T11:17:51.321Z,92347.78
2022-11-22T11:20:27.183Z,92350.88
2022-11-22T11:25:43.234Z,92345.59
2022-11-22T11:28:09.568Z,92351.97
2022-11-22T11:30:46.294Z,92321.03
2022-11-22T11:33:20.523Z,92322.53
2022-11-22T11:35:47.933Z,92326.50
2022-11-22T11:38:46.733Z,92332.34
2022-11-22T11:41:29.451Z,92331.16
2022-11-22T11:44:01.353Z,92325.47
2022-11-22T11:46:29.644Z,92331.06
2022-11-22T11:49:09.797Z,92325.28
2022-11-22T11:51:42.789Z,92283.31
2022-11-22T11:54:50.102Z,92324.63
2022-11-22T11:57:16.534Z,92308.84
2022-11-22T11:59:49.760Z,92309.25
2022-11-22T12:02:23.712Z,92323.38
2022-11-22T12:04:53.103Z,92327.84
2022-11-22T12:07:35.914Z,92323.78
2022-11-22T12:10:41.347Z,92312.56
2022-11-22T12:13:24.592Z,92318.47
2022-11-22T12:16:03.886Z,92295.09
2022-11-22T12:18:39.371Z,92285.91
2022-11-22T12:21:16.970Z,92323.22
2022-11-22T12:24:34.344Z,92320.50
2022-11-22T12:26:53.958Z,92308.56
2022-11-22T12:29:20.403Z,92317.19
2022-11-22T12:31:54.066Z,92322.44
2022-11-22T12:34:28.668Z,92306.63
2022-11-22T12:37:01.793Z,92317.75
2022-11-22T12:39:29.425Z,92317.28
2022-11-22T12:42:11.371Z,92312.63
2022-11-22T12:44:44.402Z,92309.06
2022-11-22T12:47:15.998Z,92327.81
2022-11-22T12:49:42.370Z,92321.00
2022-11-22T12:52:17.389Z,92297.91
2022-11-22T12:55:00.950Z,92304.28
2022-11-22T12:58:01.040Z,92296.63
2022-11-22T13:00:32.309Z,92295.78
2022-11-22T13:03:12.400Z,92311.31
2022-11-22T13:05:48.694Z,92310.91
2022-11-22T13:08:24.125Z,92317.81
2022-11-22T13:10:58.786Z,92311.91
2022-11-22T13:13:25.151Z,92307.66
2022-11-22T13:15:54.390Z,92280.53
2022-11-22T13:18:29.943Z,92288.03
2022-11-22T13:21:22.153Z,92294.31
2022-11-22T13:24:10.144Z,92275.59
2022-11-22T13:26:36.513Z,92293.91
2022-11-22T13:29:16.294Z,92291.66
2022-11-22T13:32:20.494Z,92302.16
2022-11-22T13:35:12.875Z,92296.53
2022-11-22T13:37:50.265Z,92302.38
2022-11-22T13:40:23.876Z,92301.84
2022-11-22T13:43:21.432Z,92300.13
2022-11-22T13:45:58.412Z,92288.47
2022-11-22T13:48:41.197Z,92298.38
2022-11-22T13:51:19.220Z,92292.59
2022-11-22T13:53:49.206Z,92272.44
2022-11-22T13:56:16.683Z,92286.63
2022-11-22T13:58:50.760Z,92293.00
2022-11-22T14:01:37.259Z,92304.13
2022-11-22T14:04:15.870Z,92309.56
2022-11-22T14:07:11.432Z,92306.16
2022-11-22T14:09:50.365Z,92317.66
2022-11-22T14:12:38.317Z,92301.59
2022-11-22T14:15:42.329Z,92322.09
2022-11-22T14:18:37.545Z,92317.16
2022-11-22T14:21:09.723Z,92321.13
2022-11-22T14:23:48.321Z,92327.06
2022-11-22T14:26:23.948Z,92323.09
2022-11-22T14:28:58.470Z,92321.06
2022-11-22T14:31:31.255Z,92319.13
2022-11-22T14:34:33.644Z,92325.41
2022-11-22T14:37:32.433Z,92341.31
2022-11-22T14:40:40.225Z,92334.97
2022-11-22T14:43:32.695Z,92335.44
2022-11-22T14:46:24.287Z,92329.88
2022-11-22T14:49:19.805Z,92332.69
2022-11-22T14:51:51.562Z,92312.38
2022-11-22T14:54:45.433Z,92339.44
2022-11-22T14:57:17.026Z,92343.63
2022-11-22T15:00:20.958Z,92349.78
2022-11-22T15:03:10.762Z,92336.66
2022-11-22T15:09:12.946Z,92341.66
2022-11-22T15:09:16.790Z,92341.09
2022-11-22T15:12:23.803Z,92334.72
2022-11-22T15:58:58.343Z,92151.50
2022-11-22T16:01:24.928Z,92283.53
2022-11-22T16:03:55.612Z,92295.44
2022-11-22T16:06:29.763Z,92223.88
2022-11-22T16:09:00.697Z,92318.53
2022-11-22T16:11:33.742Z,92274.78
2022-11-22T16:14:00.431Z,92276.38
2022-11-22T16:16:36.002Z,92289.88
2022-11-22T16:19:23.819Z,92388.56
2022-11-22T16:21:57.848Z,92266.63
2022-11-22T16:24:32.398Z,92265.22
2022-11-22T16:27:11.585Z,92276.97
2022-11-22T16:29:38.461Z,92256.47
2022-11-22T16:32:13.731Z,92275.56
2022-11-22T16:34:44.115Z,92362.31
2022-11-22T16:37:26.458Z,92391.34
2022-11-22T16:39:52.910Z,92316.13
2022-11-22T16:42:19.546Z,92266.78
2022-11-22T16:44:46.354Z,92375.44
2022-11-22T16:47:18.417Z,92408.88
2022-11-22T16:49:46.799Z,92379.63
2022-11-22T16:52:17.298Z,92292.88
2022-11-22T16:54:43.771Z,92319.31
2022-11-22T16:57:11.930Z,92298.44
2022-11-22T16:59:38.932Z,92262.44
2022-11-22T17:02:13.457Z,92290.28
2022-11-22T17:04:44.776Z,92249.28
2022-11-22T17:07:12.014Z,92298.03
2022-11-22T17:09:39.863Z,92404.50
2022-11-22T17:12:33.328Z,92363.09
2022-11-22T17:15:00.281Z,92408.50
2022-11-22T17:17:26.717Z,92321.69
2022-11-22T17:19:53.968Z,92310.13
2022-11-22T17:22:20.899Z,92324.88
2022-11-22T17:24:47.534Z,92298.59
2022-11-22T17:27:14.619Z,92316.53
2022-11-22T17:29:51.088Z,92379.03
2022-11-22T17:32:18.246Z,92340.78
2022-11-22T17:34:44.704Z,92343.59
2022-11-22T17:37:12.543Z,92380.59
2022-11-22T17:39:39.437Z,92377.03
2022-11-22T17:42:06.975Z,92321.66
2022-11-22T17:44:34.544Z,92353.94
2022-11-22T17:47:01.116Z,92292.81
2022-11-22T17:49:29.977Z,92289.84
2022-11-22T17:51:56.707Z,92296.25
2022-11-22T17:54:23.132Z,92339.59
2022-11-22T17:56:49.669Z,92369.47
2022-11-22T17:59:16.110Z,92341.41
2022-11-22T18:01:43.298Z,92374.25
2022-11-22T18:04:10.002Z,92303.41
2022-11-22T18:06:36.421Z,92287.47
2022-11-22T18:09:03.095Z,92310.56
2022-11-22T18:11:29.710Z,92344.81
2022-11-22T18:13:56.158Z,92321.69
2022-11-22T18:16:28.213Z,92324.09
2022-11-22T18:18:57.896Z,92319.34
2022-11-22T18:21:26.607Z,92402.91
2022-11-22T18:23:53.248Z,92335.84
2022-11-22T18:31:54.133Z,92359.50
2022-11-22T18:34:22.416Z,92281.50
2022-11-22T18:37:01.378Z,92263.97
2022-11-22T18:42:24.412Z,92415.63
2022-11-22T18:44:50.880Z,92305.00
2022-11-22T18:47:18.377Z,92425.19
2022-11-22T18:49:44.838Z,92411.25
2022-11-22T18:52:14.863Z,92398.53
2022-11-22T18:54:43.350Z,92369.47
2022-11-22T18:57:09.803Z,92336.41
2022-11-22T18:59:36.288Z,92395.31
2022-11-22T19:02:02.843Z,92373.03
2022-11-22T19:04:30.020Z,92355.13
2022-11-22T19:06:56.766Z,92352.72
2022-11-22T19:09:25.258Z,92385.28
2022-11-22T19:11:58.399Z,92437.50
2022-11-22T20:05:38.635Z,92486.91
2022-11-22T20:08:05.616Z,92474.19
2022-11-22T20:10:42.376Z,92478.16
2022-11-22T20:13:10.661Z,92490.91
2022-11-22T20:15:37.262Z,92480.94
2022-11-22T20:18:14.844Z,92508.03
2022-11-22T20:20:41.247Z,92484.53
2022-11-22T20:23:07.739Z,92504.44
2022-11-22T20:25:34.226Z,92504.84
2022-11-22T20:28:00.783Z,92508.22
2022-11-22T20:30:35.224Z,92490.34
2022-11-22T20:33:02.333Z,92521.00
2022-11-22T20:35:36.957Z,92505.25
2022-11-22T20:38:03.600Z,92523.56
2022-11-22T20:40:30.076Z,92506.00
2022-11-22T20:42:56.614Z,92521.16
2022-11-22T20:45:25.083Z,92501.06
2022-11-22T20:47:57.753Z,92533.91
2022-11-22T20:50:24.194Z,92513.19
2022-11-22T20:52:52.184Z,92524.34
2022-11-22T20:55:19.492Z,92500.03
2022-11-22T20:57:45.923Z,92526.31
2022-11-22T21:00:13.837Z,92495.25
2022-11-22T21:02:40.404Z,92501.03
2022-11-22T21:05:23.172Z,92529.13
2022-11-22T21:07:52.769Z,92498.81
2022-11-22T21:10:19.300Z,92537.84
2022-11-22T21:12:57.606Z,92540.66
2022-11-22T21:15:25.081Z,92528.50
2022-11-22T21:18:22.945Z,92507.75
2022-11-22T21:20:38.110Z,92524.75
2022-11-22T21:23:05.163Z,92550.28
2022-11-22T21:25:31.630Z,92519.13
2022-11-22T21:27:58.062Z,92539.06
2022-11-22T21:30:24.467Z,92532.06
2022-11-22T21:32:50.939Z,92531.13
2022-11-22T21:35:21.570Z,92531.09
2022-11-22T21:37:47.991Z,92547.84
2022-11-22T21:40:14.741Z,92549.41
2022-11-22T21:42:47.438Z,92545.47
2022-11-22T21:45:13.941Z,92530.31
2022-11-22T21:47:40.399Z,92530.31
2022-11-22T21:50:11.483Z,92537.50
2022-11-22T21:52:38.424Z,92511.97
2022-11-22T21:55:05.363Z,92535.09
2022-11-22T21:57:31.800Z,92519.16
2022-11-22T21:59:58.232Z,92498.03
2022-11-22T22:02:24.685Z,92535.13
2022-11-22T22:04:51.152Z,92528.72
2022-11-22T22:07:36.554Z,92545.09
2022-11-22T22:10:05.063Z,92559.41
2022-11-22T22:12:40.770Z,92538.69
2022-11-22T22:15:10.365Z,92531.88
2022-11-22T22:17:36.844Z,92543.84
2022-11-22T22:20:03.677Z,92553.44
2022-11-22T22:22:30.101Z,92544.66
2022-11-22T22:24:56.553Z,92537.53
2022-11-22T22:27:22.979Z,92545.28
2022-11-22T22:30:00.794Z,92558.25
2022-11-22T22:32:27.726Z,92558.25
2022-11-22T22:34:54.231Z,92567.63
2022-11-22T22:37:20.704Z,92541.66
2022-11-22T22:39:47.141Z,92568.97
2022-11-22T22:42:14.227Z,92566.16
2022-11-22T22:44:40.697Z,92576.13
2022-11-22T22:47:08.167Z,92590.66
2022-11-22T22:49:34.739Z,92570.91
2022-11-22T22:52:01.190Z,92570.53
2022-11-22T22:54:27.595Z,92569.34
2022-11-22T22:56:54.022Z,92574.50
2022-11-22T22:59:20.651Z,92587.66
2022-11-22T23:01:47.158Z,92579.91
2022-11-22T23:04:13.646Z,92597.63
2022-11-22T23:06:40.147Z,92611.56
2022-11-22T23:09:12.690Z,92567.69
2022-11-22T23:12:05.264Z,92599.25
2022-11-22T23:14:44.765Z,92598.00
2022-11-22T23:17:11.447Z,92591.22
2022-11-22T23:19:44.343Z,92523.03
2022-11-22T23:22:13.809Z,92592.44
2022-11-22T23:24:40.238Z,92584.41
2022-11-22T23:27:06.691Z,92590.22
2022-11-22T23:29:33.817Z,92587.63
2022-11-22T23:32:00.529Z,92594.78
2022-11-22T23:34:26.969Z,92598.78
2022-11-22T23:36:53.627Z,92609.59
2022-11-22T23:39:20.141Z,92601.97
2022-11-22T23:41:46.586Z,92606.97
2022-11-22T23:44:13.019Z,92596.38
2022-11-22T23:46:39.457Z,92597.97
2022-11-22T23:49:06.353Z,92614.69
2022-11-22T23:51:33.863Z,92611.91
2022-11-22T23:54:02.502Z,92611.72
2022-11-22T23:56:30.246Z,92611.13
2022-11-22T23:58:59.353Z,92590.81
